createdAt,value
2019-02-10T00:00:24.849Z,14.98
2019-02-10T00:02:53.229Z,13.53
2019-02-10T00:05:21.541Z,14.43
2019-02-10T00:07:49.918Z,14.40
2019-02-10T00:10:18.241Z,15.70
2019-02-10T00:13:23.044Z,15.43
2019-02-10T00:15:51.445Z,13.47
2019-02-10T00:18:20.176Z,14.17
2019-02-10T00:20:48.804Z,14.90
2019-02-10T00:23:17.101Z,14.20
2019-02-10T00:25:45.872Z,14.93
2019-02-10T00:28:14.246Z,15.37
2019-02-10T00:30:42.570Z,13.20
2019-02-10T00:33:10.872Z,13.43
2019-02-10T00:35:39.603Z,12.33
2019-02-10T00:38:07.906Z,13.20
2019-02-10T00:40:36.222Z,14.00
2019-02-10T00:43:04.856Z,13.97
2019-02-10T00:45:33.180Z,14.87
2019-02-10T00:48:01.484Z,14.90
2019-02-10T00:50:29.887Z,14.30
2019-02-10T00:52:58.325Z,12.40
2019-02-10T00:55:26.648Z,13.30
2019-02-10T00:57:55.243Z,14.07
2019-02-10T01:00:23.933Z,14.27
2019-02-10T01:02:52.229Z,14.27
2019-02-10T01:05:22.084Z,15.97
2019-02-10T01:07:50.309Z,14.90
2019-02-10T01:10:19.969Z,13.90
2019-02-10T01:12:48.271Z,13.87
2019-02-10T01:15:16.993Z,14.40
2019-02-10T01:17:45.684Z,15.20
2019-02-10T01:20:14.802Z,14.83
2019-02-10T01:22:43.173Z,15.93
2019-02-10T01:25:11.493Z,14.50
2019-02-10T01:27:39.871Z,15.53
2019-02-10T01:30:11.296Z,17.03
2019-02-10T01:32:39.665Z,14.77
2019-02-10T01:35:08.067Z,14.90
2019-02-10T01:37:36.725Z,15.80
2019-02-10T01:40:07.885Z,15.60
2019-02-10T01:42:36.188Z,13.93
2019-02-10T01:45:07.156Z,15.63
2019-02-10T01:47:35.458Z,16.33
2019-02-10T01:50:05.645Z,14.68
2019-02-10T01:52:34.035Z,16.42
2019-02-10T01:55:02.412Z,15.53
2019-02-10T01:57:30.737Z,16.47
2019-02-10T01:59:59.032Z,16.20
2019-02-10T02:02:27.349Z,15.83
2019-02-10T02:04:55.653Z,15.30
2019-02-10T02:07:23.972Z,16.13
2019-02-10T02:09:52.278Z,17.50
2019-02-10T02:12:21.094Z,18.02
2019-02-10T02:14:49.398Z,17.13
2019-02-10T02:17:17.730Z,18.33
2019-02-10T02:19:46.090Z,19.10
2019-02-10T02:22:14.416Z,18.87
2019-02-10T02:24:42.717Z,19.20
2019-02-10T02:27:11.045Z,20.03
2019-02-10T02:29:39.345Z,20.23
2019-02-10T02:32:07.669Z,19.30
2019-02-10T02:34:35.990Z,18.93
2019-02-10T02:37:08.066Z,20.20
2019-02-10T02:39:34.463Z,20.53
2019-02-10T02:42:02.788Z,19.00
2019-02-10T02:44:31.754Z,18.25
2019-02-10T02:47:00.421Z,18.97
2019-02-10T02:49:28.736Z,19.05
2019-02-10T02:51:57.053Z,17.55
2019-02-10T02:54:25.383Z,18.15
2019-02-10T02:56:53.686Z,17.73
2019-02-10T02:59:21.987Z,15.93
2019-02-10T03:01:50.392Z,18.60
2019-02-10T03:04:18.696Z,18.80
2019-02-10T03:06:47.029Z,18.42
2019-02-10T03:09:15.402Z,17.83
2019-02-10T03:11:43.727Z,18.50
2019-02-10T03:14:12.100Z,20.20
2019-02-10T03:16:40.434Z,18.53
2019-02-10T03:19:08.731Z,19.53
2019-02-10T03:21:37.043Z,20.93
2019-02-10T03:24:05.360Z,20.40
2019-02-10T03:26:33.664Z,20.10
2019-02-10T03:29:02.338Z,21.77
2019-02-10T03:31:31.092Z,20.53
2019-02-10T03:33:59.405Z,17.73
2019-02-10T03:36:27.708Z,18.03
2019-02-10T03:38:56.043Z,17.80
2019-02-10T03:41:24.355Z,20.45
2019-02-10T03:43:52.741Z,18.17
2019-02-10T03:46:21.054Z,19.80
2019-02-10T03:48:49.392Z,18.20
2019-02-10T03:51:17.680Z,16.95
2019-02-10T03:53:46.002Z,17.70
2019-02-10T03:56:14.303Z,17.73
2019-02-10T03:58:42.697Z,17.87
2019-02-10T04:01:10.994Z,17.80
2019-02-10T04:03:39.327Z,15.05
2019-02-10T04:06:07.621Z,16.73
2019-02-10T04:08:36.052Z,17.03
2019-02-10T04:11:04.436Z,17.10
2019-02-10T04:13:33.063Z,16.03
2019-02-10T04:16:01.373Z,17.27
2019-02-10T04:18:29.696Z,16.07
2019-02-10T04:20:57.997Z,14.77
2019-02-10T04:23:26.720Z,14.23
2019-02-10T04:25:54.997Z,18.30
2019-02-10T04:28:23.324Z,17.83
2019-02-10T04:30:51.697Z,21.80
2019-02-10T04:33:20.026Z,18.70
2019-02-10T04:35:48.324Z,17.43
2019-02-10T04:38:16.649Z,17.37
2019-02-10T04:40:44.953Z,16.67
2019-02-10T04:43:13.268Z,18.40
2019-02-10T04:45:41.578Z,18.60
2019-02-10T04:48:09.894Z,18.00
2019-02-10T04:50:38.192Z,18.60
2019-02-10T04:53:06.502Z,18.03
2019-02-10T04:55:34.829Z,19.27
2019-02-10T04:58:03.133Z,17.30
2019-02-10T05:00:31.456Z,18.30
2019-02-10T05:02:59.760Z,16.90
2019-02-10T05:05:28.084Z,18.13
2019-02-10T05:07:56.753Z,17.40
2019-02-10T05:10:25.086Z,18.60
2019-02-10T05:12:53.388Z,18.10
2019-02-10T05:15:21.709Z,18.70
2019-02-10T05:17:50.041Z,18.60
2019-02-10T05:20:18.343Z,19.27
2019-02-10T05:22:46.637Z,16.60
2019-02-10T05:25:14.975Z,19.40
2019-02-10T05:27:43.342Z,19.10
2019-02-10T05:30:11.734Z,18.70
2019-02-10T05:32:40.046Z,19.37
2019-02-10T05:35:08.743Z,19.40
2019-02-10T05:37:37.040Z,18.70
2019-02-10T05:40:05.707Z,19.80
2019-02-10T05:42:34.004Z,21.17
2019-02-10T05:45:02.331Z,22.57
2019-02-10T05:47:30.633Z,23.50
2019-02-10T05:49:58.953Z,22.98
2019-02-10T05:52:27.257Z,24.67
2019-02-10T05:54:55.582Z,23.57
2019-02-10T05:57:23.879Z,22.00
2019-02-10T05:59:52.207Z,22.73
2019-02-10T06:02:24.821Z,23.03
2019-02-10T06:04:53.526Z,24.30
2019-02-10T06:07:22.105Z,20.40
2019-02-10T06:09:50.952Z,19.75
2019-02-10T06:12:19.597Z,16.30
2019-02-10T06:14:47.902Z,18.70
2019-02-10T06:17:16.555Z,21.70
2019-02-10T06:19:44.924Z,18.10
2019-02-10T06:22:13.624Z,20.77
2019-02-10T06:24:42.211Z,20.70
2019-02-10T06:27:10.540Z,20.47
2019-02-10T06:29:38.841Z,20.73
2019-02-10T06:32:07.564Z,18.87
2019-02-10T06:34:35.932Z,22.70
2019-02-10T06:37:04.248Z,20.83
2019-02-10T06:39:32.553Z,18.80
2019-02-10T06:42:00.878Z,19.17
2019-02-10T06:44:29.185Z,20.47
2019-02-10T06:46:57.847Z,19.80
2019-02-10T06:49:26.223Z,18.83
2019-02-10T06:51:55.386Z,18.85
2019-02-10T06:54:23.700Z,18.80
2019-02-10T06:56:52.030Z,20.97
2019-02-10T06:59:40.362Z,17.70
2019-02-10T07:02:10.322Z,16.57
2019-02-10T07:04:38.631Z,16.77
2019-02-10T07:07:07.023Z,17.92
2019-02-10T07:09:35.324Z,18.90
2019-02-10T07:12:39.918Z,17.57
2019-02-10T07:15:11.402Z,15.50
2019-02-10T07:17:43.035Z,16.10
2019-02-10T07:20:40.579Z,19.27
2019-02-10T07:23:39.525Z,15.23
2019-02-10T07:26:11.003Z,17.47
2019-02-10T07:28:40.473Z,25.23
2019-02-10T07:31:08.849Z,23.20
2019-02-10T07:33:58.738Z,27.23
2019-02-10T07:36:33.144Z,23.87
2019-02-10T07:39:06.054Z,22.17
2019-02-10T07:41:58.961Z,31.90
2019-02-10T07:44:39.279Z,24.27
2019-02-10T07:47:13.612Z,24.30
2019-02-10T07:49:48.466Z,25.62
2019-02-10T07:52:25.869Z,23.90
2019-02-10T07:54:57.366Z,25.20
2019-02-10T07:57:40.925Z,28.23
2019-02-10T08:00:27.625Z,27.03
2019-02-10T08:02:59.113Z,27.93
2019-02-10T08:05:36.361Z,32.50
2019-02-10T08:08:26.697Z,29.00
2019-02-10T08:11:10.253Z,26.57
2019-02-10T08:13:47.704Z,22.17
2019-02-10T08:16:28.037Z,23.07
2019-02-10T08:19:05.525Z,18.50
2019-02-10T08:21:37.039Z,20.30
2019-02-10T08:24:14.197Z,16.00
2019-02-10T08:26:57.950Z,12.20
2019-02-10T08:29:35.142Z,10.50
2019-02-10T08:32:21.489Z,10.40
2019-02-10T08:35:08.058Z,11.60
2019-02-10T08:37:55.941Z,10.87
2019-02-10T08:40:51.509Z,7.93
2019-02-10T08:43:29.036Z,9.07
2019-02-10T08:46:21.434Z,7.43
2019-02-10T08:49:07.667Z,6.30
2019-02-10T08:51:49.584Z,5.53
2019-02-10T08:54:17.872Z,6.67
2019-02-10T08:56:46.173Z,5.10
2019-02-10T08:59:14.543Z,4.17
2019-02-10T09:01:43.150Z,4.07
2019-02-10T09:04:11.459Z,4.23
2019-02-10T09:06:40.139Z,4.90
2019-02-10T09:09:08.537Z,4.63
2019-02-10T09:11:37.324Z,4.90
2019-02-10T09:14:05.690Z,4.30
2019-02-10T09:16:34.008Z,5.10
2019-02-10T09:19:02.306Z,5.97
2019-02-10T09:21:30.626Z,4.45
2019-02-10T09:23:59.227Z,6.70
2019-02-10T09:26:27.557Z,5.92
2019-02-10T09:28:55.869Z,5.23
2019-02-10T09:31:24.212Z,5.20
2019-02-10T09:33:52.495Z,4.00
2019-02-10T09:36:21.143Z,4.40
2019-02-10T09:38:49.434Z,3.87
2019-02-10T09:41:17.760Z,4.70
2019-02-10T09:43:46.066Z,4.45
2019-02-10T09:46:14.458Z,4.30
2019-02-10T09:48:42.765Z,4.58
2019-02-10T09:51:11.414Z,4.90
2019-02-10T09:53:39.736Z,4.03
2019-02-10T09:56:08.037Z,4.43
2019-02-10T09:58:36.357Z,4.78
2019-02-10T10:01:04.642Z,3.97
2019-02-10T10:03:33.330Z,4.40
2019-02-10T10:06:01.658Z,3.70
2019-02-10T10:08:30.066Z,3.55
2019-02-10T10:10:58.602Z,3.47
2019-02-10T10:13:26.965Z,3.80
2019-02-10T10:15:55.257Z,4.30
2019-02-10T10:18:23.569Z,3.23
2019-02-10T10:20:52.538Z,3.63
2019-02-10T10:23:20.926Z,4.50
2019-02-10T10:25:49.236Z,3.60
2019-02-10T10:28:17.629Z,4.27
2019-02-10T10:30:45.930Z,3.90
2019-02-10T10:33:14.399Z,3.60
2019-02-10T10:35:42.820Z,4.43
2019-02-10T10:38:11.149Z,2.90
2019-02-10T10:40:39.444Z,3.43
2019-02-10T10:43:07.826Z,3.57
2019-02-10T10:45:36.374Z,3.60
2019-02-10T10:48:04.806Z,3.27
2019-02-10T10:50:33.111Z,2.67
2019-02-10T10:53:01.429Z,3.33
2019-02-10T10:55:29.739Z,4.55
2019-02-10T10:57:58.062Z,3.30
2019-02-10T11:00:26.421Z,2.63
2019-02-10T11:02:55.021Z,3.08
2019-02-10T11:05:23.331Z,3.37
2019-02-10T11:07:51.645Z,2.77
2019-02-10T11:10:20.005Z,3.20
2019-02-10T11:12:48.627Z,3.60
2019-02-10T11:15:17.659Z,3.10
2019-02-10T11:17:45.964Z,3.10
2019-02-10T11:20:14.272Z,3.43
2019-02-10T11:22:42.565Z,2.37
2019-02-10T11:25:11.712Z,3.07
2019-02-10T11:27:40.351Z,2.67
2019-02-10T11:30:13.699Z,2.67
2019-02-10T11:32:42.073Z,3.08
2019-02-10T11:35:11.029Z,2.50
2019-02-10T11:37:39.512Z,3.17
2019-02-10T11:40:12.402Z,3.22
2019-02-10T11:42:40.698Z,3.77
2019-02-10T11:45:11.623Z,2.60
2019-02-10T11:47:40.315Z,3.33
2019-02-10T11:50:11.201Z,4.03
2019-02-10T11:52:39.587Z,2.63
2019-02-10T11:55:09.416Z,5.63
2019-02-10T11:57:37.716Z,3.67
2019-02-10T12:00:14.177Z,2.47
2019-02-10T12:02:42.478Z,3.17
2019-02-10T12:05:11.366Z,3.30
2019-02-10T12:07:39.934Z,6.13
2019-02-10T12:10:13.298Z,3.43
2019-02-10T12:12:41.699Z,4.37
2019-02-10T12:15:12.541Z,3.57
2019-02-10T12:17:40.838Z,3.33
2019-02-10T12:20:11.405Z,3.80
2019-02-10T12:22:40.182Z,3.43
2019-02-10T12:25:10.030Z,3.97
2019-02-10T12:27:38.392Z,4.30
2019-02-10T12:30:16.879Z,3.87
2019-02-10T12:32:45.354Z,4.15
2019-02-10T12:35:13.819Z,7.00
2019-02-10T12:37:42.121Z,5.20
2019-02-10T12:40:12.262Z,4.27
2019-02-10T12:42:40.562Z,5.60
2019-02-10T12:45:12.054Z,4.30
2019-02-10T12:47:40.691Z,4.40
2019-02-10T12:50:13.570Z,4.53
2019-02-10T12:52:41.911Z,3.73
2019-02-10T12:55:12.461Z,4.63
2019-02-10T12:57:41.186Z,4.43
2019-02-10T13:00:19.986Z,4.43
2019-02-10T13:02:48.351Z,4.10
2019-02-10T13:05:17.026Z,5.30
2019-02-10T13:07:45.319Z,5.40
2019-02-10T13:10:17.806Z,6.17
2019-02-10T13:12:45.358Z,5.80
2019-02-10T13:15:14.089Z,6.00
2019-02-10T13:17:42.459Z,5.03
2019-02-10T13:20:13.116Z,6.10
2019-02-10T13:22:41.556Z,5.77
2019-02-10T13:25:11.784Z,6.97
2019-02-10T13:27:40.288Z,6.13
2019-02-10T13:30:16.536Z,6.00
2019-02-10T13:32:44.949Z,6.70
2019-02-10T13:35:13.322Z,8.58
2019-02-10T13:37:41.779Z,7.70
2019-02-10T13:40:16.972Z,7.70
2019-02-10T13:42:45.711Z,8.03
2019-02-10T13:45:14.083Z,9.70
2019-02-10T13:47:42.435Z,9.47
2019-02-10T13:50:13.839Z,10.20
2019-02-10T13:52:42.176Z,9.53
2019-02-10T13:55:12.825Z,12.05
2019-02-10T13:57:41.168Z,11.17
2019-02-10T14:00:20.803Z,11.93
2019-02-10T14:02:49.130Z,12.90
2019-02-10T14:05:17.440Z,14.67
2019-02-10T14:07:45.909Z,14.17
2019-02-10T14:10:24.871Z,14.13
2019-02-10T14:12:46.948Z,14.23
2019-02-10T14:15:17.102Z,14.80
2019-02-10T14:17:45.725Z,15.73
2019-02-10T14:20:20.482Z,15.30
2019-02-10T14:22:48.863Z,16.93
2019-02-10T14:25:17.201Z,18.07
2019-02-10T14:27:45.802Z,17.60
2019-02-10T14:30:19.156Z,18.25
2019-02-10T14:32:47.457Z,18.07
2019-02-10T14:35:15.788Z,19.10
2019-02-10T14:37:44.132Z,20.87
2019-02-10T14:40:12.590Z,20.10
2019-02-10T14:42:40.974Z,21.20
2019-02-10T14:45:13.976Z,20.43
2019-02-10T14:47:42.346Z,21.37
2019-02-10T14:50:16.808Z,22.73
2019-02-10T14:52:45.112Z,21.90
2019-02-10T14:55:13.512Z,22.20
2019-02-10T14:57:41.796Z,23.90
2019-02-10T15:00:15.122Z,22.35
2019-02-10T15:02:43.494Z,26.17
2019-02-10T15:05:11.887Z,25.15
2019-02-10T15:07:40.489Z,24.73
2019-02-10T15:10:14.126Z,25.87
2019-02-10T15:12:42.427Z,24.57
2019-02-10T15:15:11.686Z,23.50
2019-02-10T15:17:40.385Z,24.90
2019-02-10T15:20:11.008Z,25.95
2019-02-10T15:22:39.378Z,25.50
2019-02-10T15:25:10.280Z,24.90
2019-02-10T15:27:38.653Z,25.08
2019-02-10T15:30:15.052Z,26.80
2019-02-10T15:32:43.420Z,26.37
2019-02-10T15:35:11.810Z,24.98
2019-02-10T15:37:40.125Z,25.10
2019-02-10T15:40:10.391Z,24.40
2019-02-10T15:42:38.767Z,23.50
2019-02-10T15:45:12.377Z,26.00
2019-02-10T15:47:40.700Z,23.47
2019-02-10T15:50:14.743Z,23.67
2019-02-10T15:52:43.115Z,22.27
2019-02-10T15:55:14.585Z,23.27
2019-02-10T15:57:42.957Z,22.50
2019-02-10T16:00:17.775Z,22.52
2019-02-10T16:02:46.078Z,23.57
2019-02-10T16:05:14.447Z,23.10
2019-02-10T16:07:42.846Z,23.77
2019-02-10T16:10:11.917Z,24.33
2019-02-10T16:12:40.248Z,23.27
2019-02-10T16:15:10.991Z,24.13
2019-02-10T16:17:39.454Z,24.30
2019-02-10T16:20:13.317Z,24.97
2019-02-10T16:22:41.726Z,24.53
2019-02-10T16:25:10.080Z,22.30
2019-02-10T16:27:38.402Z,25.90
2019-02-10T16:30:12.999Z,26.15
2019-02-10T16:32:49.586Z,25.33
2019-02-10T16:35:12.430Z,23.37
2019-02-10T16:37:40.746Z,23.90
2019-02-10T16:40:17.932Z,24.90
2019-02-10T16:42:46.256Z,24.17
2019-02-10T16:45:15.104Z,25.65
2019-02-10T16:47:43.492Z,25.63
2019-02-10T16:50:16.981Z,24.57
2019-02-10T16:52:45.379Z,24.05
2019-02-10T16:55:19.131Z,24.43
2019-02-10T16:57:47.463Z,25.20
2019-02-10T17:00:16.779Z,25.87
2019-02-10T17:02:45.484Z,23.17
2019-02-10T17:05:13.862Z,25.80
2019-02-10T17:07:42.256Z,25.43
2019-02-10T17:10:20.887Z,26.47
2019-02-10T17:12:49.588Z,25.23
2019-02-10T17:15:17.975Z,29.40
2019-02-10T17:17:46.386Z,26.67
2019-02-10T17:20:15.933Z,22.80
2019-02-10T17:22:44.267Z,26.23
2019-02-10T17:25:18.828Z,26.07
2019-02-10T17:27:47.166Z,26.07
2019-02-10T17:30:16.450Z,25.23
2019-02-10T17:32:44.864Z,27.50
2019-02-10T17:35:15.157Z,25.95
2019-02-10T17:37:43.493Z,26.60
2019-02-10T17:40:23.290Z,29.20
2019-02-10T17:42:51.575Z,25.13
2019-02-10T17:45:19.880Z,25.25
2019-02-10T17:47:48.368Z,26.30
2019-02-10T17:50:17.446Z,25.32
2019-02-10T17:52:45.842Z,25.60
2019-02-10T17:55:14.140Z,28.27
2019-02-10T17:57:42.477Z,24.90
2019-02-10T18:00:16.234Z,26.15
2019-02-10T18:02:44.567Z,26.30
2019-02-10T18:05:13.265Z,25.53
2019-02-10T18:07:41.658Z,26.13
2019-02-10T18:10:13.271Z,28.70
2019-02-10T18:12:41.594Z,25.97
2019-02-10T18:15:13.330Z,26.50
2019-02-10T18:17:49.577Z,26.37
2019-02-10T18:20:25.063Z,26.63
2019-02-10T18:23:12.846Z,25.53
2019-02-10T18:25:54.505Z,27.00
2019-02-10T18:28:39.381Z,27.98
2019-02-10T18:31:09.672Z,28.30
2019-02-10T18:33:45.554Z,26.87
2019-02-10T18:36:34.180Z,28.57
2019-02-10T18:39:04.198Z,27.50
2019-02-10T18:41:42.971Z,28.38
2019-02-10T18:44:21.669Z,29.00
2019-02-10T18:46:54.060Z,30.97
2019-02-10T18:49:26.761Z,28.87
2019-02-10T18:52:12.070Z,29.77
2019-02-10T18:54:42.043Z,30.97
2019-02-10T18:57:12.355Z,29.00
2019-02-10T19:00:00.530Z,26.57
2019-02-10T19:02:42.788Z,27.60
2019-02-10T19:05:12.791Z,27.63
2019-02-10T19:07:57.425Z,34.23
2019-02-10T19:10:43.549Z,29.10
2019-02-10T19:13:16.364Z,30.90
2019-02-10T19:15:58.448Z,28.37
2019-02-10T19:18:31.545Z,30.10
2019-02-10T19:21:07.218Z,34.97
2019-02-10T19:23:37.538Z,29.43
2019-02-10T19:26:10.196Z,30.97
2019-02-10T19:28:43.210Z,30.32
2019-02-10T19:31:13.161Z,34.53
2019-02-10T19:33:43.149Z,31.67
2019-02-10T19:36:13.111Z,29.17
2019-02-10T19:38:46.043Z,31.37
2019-02-10T19:41:34.317Z,31.57
2019-02-10T19:44:13.279Z,30.47
2019-02-10T19:46:46.148Z,29.77
2019-02-10T19:49:34.233Z,30.83
2019-02-10T19:52:07.264Z,29.00
2019-02-10T19:54:39.949Z,30.23
2019-02-10T19:57:15.655Z,31.10
2019-02-10T20:00:01.795Z,30.30
2019-02-10T20:02:48.323Z,30.50
2019-02-10T20:05:33.252Z,29.33
2019-02-10T20:08:11.944Z,30.93
2019-02-10T20:10:44.644Z,28.45
2019-02-10T20:13:20.146Z,18.10
2019-02-10T20:15:59.107Z,23.87
2019-02-10T20:18:44.168Z,32.00
2019-02-10T20:21:29.052Z,27.60
2019-02-10T20:24:15.107Z,28.42
2019-02-10T20:26:59.727Z,31.00
2019-02-10T20:29:32.640Z,32.13
2019-02-10T20:32:05.343Z,31.30
2019-02-10T20:34:37.776Z,33.23
2019-02-10T20:37:07.769Z,32.30
2019-02-10T20:39:46.719Z,31.20
2019-02-10T20:42:32.761Z,27.67
2019-02-10T20:45:05.728Z,32.20
2019-02-10T20:47:38.612Z,33.70
2019-02-10T20:50:26.032Z,31.97
2019-02-10T20:53:12.303Z,23.80
2019-02-10T20:55:54.170Z,22.50
2019-02-10T20:58:29.696Z,24.20
2019-02-10T21:01:14.976Z,15.80
2019-02-10T21:03:53.956Z,17.13
2019-02-10T21:06:40.261Z,23.50
2019-02-10T21:09:10.278Z,18.90
2019-02-10T21:11:42.643Z,16.70
2019-02-10T21:14:24.572Z,16.03
2019-02-10T21:17:10.560Z,11.17
2019-02-10T21:19:52.915Z,10.15
2019-02-10T21:22:32.093Z,6.40
2019-02-10T21:25:03.287Z,7.47
2019-02-10T21:27:45.588Z,5.30
2019-02-10T21:30:15.548Z,4.80
2019-02-10T21:33:04.614Z,4.95
2019-02-10T21:35:40.136Z,2.95
2019-02-10T21:38:10.081Z,2.87
2019-02-10T21:40:42.816Z,2.90
2019-02-10T21:43:15.218Z,2.40
2019-02-10T21:45:45.318Z,2.47
2019-02-10T21:48:15.317Z,2.20
2019-02-10T21:50:43.684Z,1.87
2019-02-10T21:53:12.006Z,2.53
2019-02-10T21:55:40.311Z,2.33
2019-02-10T21:58:08.625Z,2.43
2019-02-10T22:00:36.920Z,1.83
2019-02-10T22:03:05.534Z,1.97
2019-02-10T22:05:33.959Z,1.33
2019-02-10T22:08:02.256Z,1.07
2019-02-10T22:10:30.897Z,1.63
2019-02-10T22:12:59.263Z,0.78
2019-02-10T22:15:27.580Z,1.12
2019-02-10T22:17:55.878Z,0.70
2019-02-10T22:20:24.196Z,0.60
2019-02-10T22:22:52.492Z,0.60
2019-02-10T22:25:21.180Z,1.10
2019-02-10T22:27:49.593Z,0.60
2019-02-10T22:30:18.080Z,0.60
2019-02-10T22:32:46.375Z,0.50
2019-02-10T22:35:14.695Z,0.40
2019-02-10T22:37:42.993Z,0.40
2019-02-10T22:40:12.552Z,0.40
2019-02-10T22:42:45.751Z,0.50
2019-02-10T22:45:12.997Z,0.40
2019-02-10T22:47:41.296Z,0.50
2019-02-10T22:50:12.752Z,0.40
2019-02-10T22:52:41.368Z,0.50
2019-02-10T22:55:10.318Z,0.50
2019-02-10T22:57:38.983Z,0.40
2019-02-10T23:00:20.918Z,0.60
2019-02-10T23:02:49.209Z,0.40
2019-02-10T23:05:17.732Z,0.50
2019-02-10T23:07:46.015Z,0.50
2019-02-10T23:10:14.332Z,0.40
2019-02-10T23:12:42.630Z,0.50
2019-02-10T23:15:10.944Z,0.40
2019-02-10T23:17:39.241Z,0.50
2019-02-10T23:20:07.902Z,0.40
2019-02-10T23:22:36.196Z,0.50
2019-02-10T23:25:05.173Z,0.40
2019-02-10T23:27:33.466Z,0.80
2019-02-10T23:30:01.780Z,0.40
2019-02-10T23:32:30.074Z,0.40
2019-02-10T23:34:59.081Z,0.40
2019-02-10T23:37:27.399Z,0.40
2019-02-10T23:39:55.698Z,0.40
2019-02-10T23:42:24.011Z,0.50
2019-02-10T23:44:52.308Z,0.40
2019-02-10T23:47:20.633Z,0.50
2019-02-10T23:49:48.924Z,0.40
2019-02-10T23:52:17.232Z,0.47
2019-02-10T23:54:45.961Z,0.47
2019-02-10T23:57:14.276Z,0.50
2019-02-10T23:59:42.573Z,0.50
